sensor_id;sensor_type;location;lat;lon;timestamp;P1;durP1;ratioP1;P2;durP2;ratioP2
26822;SDS011;14852;51.910;8.878;2022-08-19T00:01:44;6.28;;;3.88;;
26822;SDS011;14852;51.910;8.878;2022-08-19T00:04:12;6.38;;;4.07;;
26822;SDS011;14852;51.910;8.878;2022-08-19T00:06:41;5.03;;;4.25;;
26822;SDS011;14852;51.910;8.878;2022-08-19T00:09:11;7.18;;;4.45;;
26822;SDS011;14852;51.910;8.878;2022-08-19T00:11:39;6.90;;;4.65;;
26822;SDS011;14852;51.910;8.878;2022-08-19T00:14:06;5.70;;;4.75;;
26822;SDS011;14852;51.910;8.878;2022-08-19T00:16:35;6.45;;;4.18;;
26822;SDS011;14852;51.910;8.878;2022-08-19T00:19:03;6.05;;;4.35;;
26822;SDS011;14852;51.910;8.878;2022-08-19T00:21:30;6.63;;;3.78;;
26822;SDS011;14852;51.910;8.878;2022-08-19T00:23:56;8.63;;;4.72;;
26822;SDS011;14852;51.910;8.878;2022-08-19T00:26:23;5.30;;;3.83;;
26822;SDS011;14852;51.910;8.878;2022-08-19T00:28:52;6.10;;;4.10;;
26822;SDS011;14852;51.910;8.878;2022-08-19T00:31:17;6.00;;;4.93;;
26822;SDS011;14852;51.910;8.878;2022-08-19T00:33:43;6.45;;;4.05;;
26822;SDS011;14852;51.910;8.878;2022-08-19T00:36:10;7.03;;;4.68;;
26822;SDS011;14852;51.910;8.878;2022-08-19T00:38:37;6.75;;;4.20;;
26822;SDS011;14852;51.910;8.878;2022-08-19T00:41:08;6.95;;;4.75;;
26822;SDS011;14852;51.910;8.878;2022-08-19T00:43:37;5.97;;;4.07;;
26822;SDS011;14852;51.910;8.878;2022-08-19T00:46:04;6.90;;;4.78;;
26822;SDS011;14852;51.910;8.878;2022-08-19T00:48:30;4.90;;;3.85;;
26822;SDS011;14852;51.910;8.878;2022-08-19T00:53:27;4.72;;;4.22;;
26822;SDS011;14852;51.910;8.878;2022-08-19T00:55:56;5.35;;;3.88;;
26822;SDS011;14852;51.910;8.878;2022-08-19T00:58:26;7.65;;;4.30;;
26822;SDS011;14852;51.910;8.878;2022-08-19T01:00:56;5.45;;;4.93;;
26822;SDS011;14852;51.910;8.878;2022-08-19T01:03:22;5.63;;;4.43;;
26822;SDS011;14852;51.910;8.878;2022-08-19T01:05:49;6.35;;;4.57;;
26822;SDS011;14852;51.910;8.878;2022-08-19T01:08:17;5.68;;;4.20;;
26822;SDS011;14852;51.910;8.878;2022-08-19T01:10:46;5.28;;;4.32;;
26822;SDS011;14852;51.910;8.878;2022-08-19T01:13:15;4.95;;;4.22;;
26822;SDS011;14852;51.910;8.878;2022-08-19T01:15:46;7.63;;;4.60;;
26822;SDS011;14852;51.910;8.878;2022-08-19T01:18:21;6.07;;;4.75;;
26822;SDS011;14852;51.910;8.878;2022-08-19T01:20:48;6.18;;;5.05;;
26822;SDS011;14852;51.910;8.878;2022-08-19T01:23:14;6.40;;;4.68;;
26822;SDS011;14852;51.910;8.878;2022-08-19T01:25:45;6.32;;;4.50;;
26822;SDS011;14852;51.910;8.878;2022-08-19T01:28:16;7.72;;;4.85;;
26822;SDS011;14852;51.910;8.878;2022-08-19T01:30:50;5.30;;;4.55;;
26822;SDS011;14852;51.910;8.878;2022-08-19T01:33:17;5.78;;;5.07;;
26822;SDS011;14852;51.910;8.878;2022-08-19T01:35:44;6.38;;;4.70;;
26822;SDS011;14852;51.910;8.878;2022-08-19T01:38:19;5.32;;;4.82;;
26822;SDS011;14852;51.910;8.878;2022-08-19T01:40:51;6.07;;;5.15;;
26822;SDS011;14852;51.910;8.878;2022-08-19T01:43:17;9.27;;;5.80;;
26822;SDS011;14852;51.910;8.878;2022-08-19T01:45:44;6.95;;;5.30;;
26822;SDS011;14852;51.910;8.878;2022-08-19T01:48:11;5.38;;;4.63;;
26822;SDS011;14852;51.910;8.878;2022-08-19T01:50:37;6.50;;;4.60;;
26822;SDS011;14852;51.910;8.878;2022-08-19T01:53:05;7.15;;;5.18;;
26822;SDS011;14852;51.910;8.878;2022-08-19T01:55:36;6.35;;;5.75;;
26822;SDS011;14852;51.910;8.878;2022-08-19T01:58:05;6.18;;;5.30;;
26822;SDS011;14852;51.910;8.878;2022-08-19T02:00:33;6.00;;;4.28;;
26822;SDS011;14852;51.910;8.878;2022-08-19T02:02:59;5.07;;;4.55;;
26822;SDS011;14852;51.910;8.878;2022-08-19T02:05:26;5.88;;;4.32;;
26822;SDS011;14852;51.910;8.878;2022-08-19T02:07:54;5.63;;;4.20;;
26822;SDS011;14852;51.910;8.878;2022-08-19T02:10:23;5.75;;;4.88;;
26822;SDS011;14852;51.910;8.878;2022-08-19T02:12:49;6.57;;;5.07;;
26822;SDS011;14852;51.910;8.878;2022-08-19T02:15:16;6.43;;;4.95;;
26822;SDS011;14852;51.910;8.878;2022-08-19T02:17:44;7.15;;;5.43;;
26822;SDS011;14852;51.910;8.878;2022-08-19T02:20:11;7.05;;;4.70;;
26822;SDS011;14852;51.910;8.878;2022-08-19T02:22:38;7.18;;;5.60;;
26822;SDS011;14852;51.910;8.878;2022-08-19T02:25:07;6.07;;;4.72;;
26822;SDS011;14852;51.910;8.878;2022-08-19T02:27:38;8.18;;;5.28;;
26822;SDS011;14852;51.910;8.878;2022-08-19T02:30:05;5.78;;;5.00;;
26822;SDS011;14852;51.910;8.878;2022-08-19T02:32:35;6.70;;;5.35;;
26822;SDS011;14852;51.910;8.878;2022-08-19T02:35:00;7.03;;;5.70;;
26822;SDS011;14852;51.910;8.878;2022-08-19T02:37:27;7.13;;;5.60;;
26822;SDS011;14852;51.910;8.878;2022-08-19T02:40:11;5.95;;;5.20;;
26822;SDS011;14852;51.910;8.878;2022-08-19T02:42:37;6.78;;;5.40;;
26822;SDS011;14852;51.910;8.878;2022-08-19T02:45:03;5.63;;;4.90;;
26822;SDS011;14852;51.910;8.878;2022-08-19T02:47:30;5.63;;;5.13;;
26822;SDS011;14852;51.910;8.878;2022-08-19T02:49:56;6.60;;;5.68;;
26822;SDS011;14852;51.910;8.878;2022-08-19T02:52:22;8.00;;;6.07;;
26822;SDS011;14852;51.910;8.878;2022-08-19T02:54:48;5.78;;;4.85;;
26822;SDS011;14852;51.910;8.878;2022-08-19T02:57:14;6.72;;;5.93;;
26822;SDS011;14852;51.910;8.878;2022-08-19T02:59:40;5.75;;;4.53;;
26822;SDS011;14852;51.910;8.878;2022-08-19T03:02:05;7.10;;;5.20;;
26822;SDS011;14852;51.910;8.878;2022-08-19T03:04:31;7.97;;;5.32;;
26822;SDS011;14852;51.910;8.878;2022-08-19T03:06:57;5.65;;;5.05;;
26822;SDS011;14852;51.910;8.878;2022-08-19T03:09:23;6.07;;;5.47;;
26822;SDS011;14852;51.910;8.878;2022-08-19T03:11:48;5.50;;;4.45;;
26822;SDS011;14852;51.910;8.878;2022-08-19T03:14:15;6.07;;;5.15;;
26822;SDS011;14852;51.910;8.878;2022-08-19T03:16:43;7.18;;;5.40;;
26822;SDS011;14852;51.910;8.878;2022-08-19T03:19:13;7.88;;;5.32;;
26822;SDS011;14852;51.910;8.878;2022-08-19T03:21:41;6.25;;;5.63;;
26822;SDS011;14852;51.910;8.878;2022-08-19T03:24:10;7.38;;;6.00;;
26822;SDS011;14852;51.910;8.878;2022-08-19T03:26:40;5.82;;;5.00;;
26822;SDS011;14852;51.910;8.878;2022-08-19T03:29:10;9.25;;;6.45;;
26822;SDS011;14852;51.910;8.878;2022-08-19T03:31:37;6.90;;;5.47;;
26822;SDS011;14852;51.910;8.878;2022-08-19T03:34:05;6.47;;;5.32;;
26822;SDS011;14852;51.910;8.878;2022-08-19T03:36:32;7.43;;;5.15;;
26822;SDS011;14852;51.910;8.878;2022-08-19T03:38:59;6.18;;;5.35;;
26822;SDS011;14852;51.910;8.878;2022-08-19T03:41:27;7.95;;;5.45;;
26822;SDS011;14852;51.910;8.878;2022-08-19T03:43:57;6.20;;;5.35;;
26822;SDS011;14852;51.910;8.878;2022-08-19T03:46:28;11.48;;;5.32;;
26822;SDS011;14852;51.910;8.878;2022-08-19T03:48:57;6.85;;;5.30;;
26822;SDS011;14852;51.910;8.878;2022-08-19T03:51:27;5.93;;;4.85;;
26822;SDS011;14852;51.910;8.878;2022-08-19T03:53:56;6.10;;;5.50;;
26822;SDS011;14852;51.910;8.878;2022-08-19T03:56:25;7.30;;;6.13;;
26822;SDS011;14852;51.910;8.878;2022-08-19T03:58:55;8.15;;;5.90;;
26822;SDS011;14852;51.910;8.878;2022-08-19T04:01:24;7.35;;;5.43;;
26822;SDS011;14852;51.910;8.878;2022-08-19T04:03:53;5.55;;;4.85;;
26822;SDS011;14852;51.910;8.878;2022-08-19T04:06:22;6.00;;;5.22;;
26822;SDS011;14852;51.910;8.878;2022-08-19T04:08:55;6.47;;;5.28;;
26822;SDS011;14852;51.910;8.878;2022-08-19T04:11:27;6.72;;;5.28;;
26822;SDS011;14852;51.910;8.878;2022-08-19T04:13:56;7.13;;;5.25;;
26822;SDS011;14852;51.910;8.878;2022-08-19T04:16:23;6.93;;;5.60;;
26822;SDS011;14852;51.910;8.878;2022-08-19T04:18:53;6.05;;;5.55;;
26822;SDS011;14852;51.910;8.878;2022-08-19T04:21:26;5.53;;;5.03;;
26822;SDS011;14852;51.910;8.878;2022-08-19T04:23:53;4.82;;;4.43;;
26822;SDS011;14852;51.910;8.878;2022-08-19T04:26:21;6.20;;;4.88;;
26822;SDS011;14852;51.910;8.878;2022-08-19T04:28:57;6.07;;;5.22;;
26822;SDS011;14852;51.910;8.878;2022-08-19T04:33:58;5.93;;;5.22;;
26822;SDS011;14852;51.910;8.878;2022-08-19T04:36:28;8.55;;;5.70;;
26822;SDS011;14852;51.910;8.878;2022-08-19T04:38:57;6.22;;;5.63;;
26822;SDS011;14852;51.910;8.878;2022-08-19T04:41:28;5.85;;;5.22;;
26822;SDS011;14852;51.910;8.878;2022-08-19T04:44:12;7.53;;;5.60;;
26822;SDS011;14852;51.910;8.878;2022-08-19T04:46:43;7.72;;;6.38;;
26822;SDS011;14852;51.910;8.878;2022-08-19T04:49:10;7.47;;;5.78;;
26822;SDS011;14852;51.910;8.878;2022-08-19T04:51:36;7.85;;;5.80;;
26822;SDS011;14852;51.910;8.878;2022-08-19T04:54:05;6.85;;;6.05;;
26822;SDS011;14852;51.910;8.878;2022-08-19T04:56:31;6.00;;;5.40;;
26822;SDS011;14852;51.910;8.878;2022-08-19T04:58:57;6.72;;;5.70;;
26822;SDS011;14852;51.910;8.878;2022-08-19T05:01:28;9.45;;;5.45;;
26822;SDS011;14852;51.910;8.878;2022-08-19T05:03:55;7.97;;;5.30;;
26822;SDS011;14852;51.910;8.878;2022-08-19T05:06:21;8.38;;;5.47;;
26822;SDS011;14852;51.910;8.878;2022-08-19T05:08:48;6.35;;;5.75;;
26822;SDS011;14852;51.910;8.878;2022-08-19T05:14:03;6.47;;;5.63;;
26822;SDS011;14852;51.910;8.878;2022-08-19T05:16:31;7.20;;;5.13;;
26822;SDS011;14852;51.910;8.878;2022-08-19T05:18:57;6.07;;;5.07;;
26822;SDS011;14852;51.910;8.878;2022-08-19T05:21:41;10.70;;;6.00;;
26822;SDS011;14852;51.910;8.878;2022-08-19T05:24:27;5.68;;;5.10;;
26822;SDS011;14852;51.910;8.878;2022-08-19T05:26:54;5.90;;;4.95;;
26822;SDS011;14852;51.910;8.878;2022-08-19T05:29:26;5.63;;;5.03;;
26822;SDS011;14852;51.910;8.878;2022-08-19T05:31:54;6.53;;;5.32;;
26822;SDS011;14852;51.910;8.878;2022-08-19T05:34:30;4.35;;;3.95;;
26822;SDS011;14852;51.910;8.878;2022-08-19T05:36:58;6.10;;;5.18;;
26822;SDS011;14852;51.910;8.878;2022-08-19T05:39:37;5.38;;;4.85;;
26822;SDS011;14852;51.910;8.878;2022-08-19T05:42:04;5.68;;;5.13;;
26822;SDS011;14852;51.910;8.878;2022-08-19T05:44:35;9.80;;;5.97;;
26822;SDS011;14852;51.910;8.878;2022-08-19T05:47:14;5.13;;;4.53;;
26822;SDS011;14852;51.910;8.878;2022-08-19T05:49:50;6.43;;;5.32;;
26822;SDS011;14852;51.910;8.878;2022-08-19T05:52:19;6.18;;;3.95;;
26822;SDS011;14852;51.910;8.878;2022-08-19T05:55:05;4.80;;;4.30;;
26822;SDS011;14852;51.910;8.878;2022-08-19T05:57:39;5.78;;;4.25;;
26822;SDS011;14852;51.910;8.878;2022-08-19T06:00:10;4.65;;;4.20;;
26822;SDS011;14852;51.910;8.878;2022-08-19T06:02:47;3.90;;;3.40;;
26822;SDS011;14852;51.910;8.878;2022-08-19T06:05:16;6.53;;;3.38;;
26822;SDS011;14852;51.910;8.878;2022-08-19T06:07:50;4.13;;;3.58;;
26822;SDS011;14852;51.910;8.878;2022-08-19T06:10:16;4.68;;;3.72;;
26822;SDS011;14852;51.910;8.878;2022-08-19T06:12:44;4.75;;;4.32;;
26822;SDS011;14852;51.910;8.878;2022-08-19T06:15:10;7.15;;;5.30;;
26822;SDS011;14852;51.910;8.878;2022-08-19T06:17:48;5.00;;;4.47;;
26822;SDS011;14852;51.910;8.878;2022-08-19T06:20:14;5.50;;;4.28;;
26822;SDS011;14852;51.910;8.878;2022-08-19T06:22:45;5.13;;;4.13;;
26822;SDS011;14852;51.910;8.878;2022-08-19T06:25:17;4.25;;;3.85;;
26822;SDS011;14852;51.910;8.878;2022-08-19T06:27:43;3.72;;;3.42;;
26822;SDS011;14852;51.910;8.878;2022-08-19T06:30:17;4.22;;;3.58;;
26822;SDS011;14852;51.910;8.878;2022-08-19T06:32:45;5.22;;;3.83;;
26822;SDS011;14852;51.910;8.878;2022-08-19T06:35:17;4.15;;;3.00;;
26822;SDS011;14852;51.910;8.878;2022-08-19T06:37:52;3.80;;;3.25;;
26822;SDS011;14852;51.910;8.878;2022-08-19T06:40:20;4.40;;;2.78;;
26822;SDS011;14852;51.910;8.878;2022-08-19T06:42:49;5.65;;;3.45;;
26822;SDS011;14852;51.910;8.878;2022-08-19T06:45:25;3.70;;;3.10;;
26822;SDS011;14852;51.910;8.878;2022-08-19T06:47:53;3.92;;;3.53;;
26822;SDS011;14852;51.910;8.878;2022-08-19T06:50:21;4.43;;;3.05;;
26822;SDS011;14852;51.910;8.878;2022-08-19T06:52:53;4.60;;;3.67;;
26822;SDS011;14852;51.910;8.878;2022-08-19T06:55:22;3.50;;;3.05;;
26822;SDS011;14852;51.910;8.878;2022-08-19T06:58:05;4.25;;;3.47;;
26822;SDS011;14852;51.910;8.878;2022-08-19T07:00:34;6.65;;;4.10;;
26822;SDS011;14852;51.910;8.878;2022-08-19T07:03:06;3.97;;;3.58;;
26822;SDS011;14852;51.910;8.878;2022-08-19T07:05:44;4.70;;;3.45;;
26822;SDS011;14852;51.910;8.878;2022-08-19T07:08:22;4.45;;;3.30;;
26822;SDS011;14852;51.910;8.878;2022-08-19T07:13:45;4.40;;;4.00;;
26822;SDS011;14852;51.910;8.878;2022-08-19T07:16:22;3.35;;;3.05;;
26822;SDS011;14852;51.910;8.878;2022-08-19T07:18:54;6.43;;;3.17;;
26822;SDS011;14852;51.910;8.878;2022-08-19T07:24:05;4.13;;;3.20;;
26822;SDS011;14852;51.910;8.878;2022-08-19T07:26:32;4.18;;;3.65;;
26822;SDS011;14852;51.910;8.878;2022-08-19T07:29:07;3.83;;;3.22;;
26822;SDS011;14852;51.910;8.878;2022-08-19T07:31:33;3.78;;;3.17;;
26822;SDS011;14852;51.910;8.878;2022-08-19T07:34:03;3.97;;;3.60;;
26822;SDS011;14852;51.910;8.878;2022-08-19T07:36:32;4.80;;;3.22;;
26822;SDS011;14852;51.910;8.878;2022-08-19T07:39:11;6.53;;;4.80;;
26822;SDS011;14852;51.910;8.878;2022-08-19T07:41:50;5.60;;;3.95;;
26822;SDS011;14852;51.910;8.878;2022-08-19T07:44:16;4.57;;;4.18;;
26822;SDS011;14852;51.910;8.878;2022-08-19T07:46:44;3.72;;;3.25;;
26822;SDS011;14852;51.910;8.878;2022-08-19T07:49:15;5.15;;;3.63;;
26822;SDS011;14852;51.910;8.878;2022-08-19T07:51:45;5.32;;;3.17;;
26822;SDS011;14852;51.910;8.878;2022-08-19T07:54:15;4.25;;;3.10;;
26822;SDS011;14852;51.910;8.878;2022-08-19T07:56:42;5.20;;;3.60;;
26822;SDS011;14852;51.910;8.878;2022-08-19T07:59:08;4.10;;;3.63;;
26822;SDS011;14852;51.910;8.878;2022-08-19T08:01:34;3.35;;;3.05;;
26822;SDS011;14852;51.910;8.878;2022-08-19T08:04:01;4.75;;;3.38;;
26822;SDS011;14852;51.910;8.878;2022-08-19T08:06:45;6.63;;;3.70;;
26822;SDS011;14852;51.910;8.878;2022-08-19T08:09:34;4.95;;;3.75;;
26822;SDS011;14852;51.910;8.878;2022-08-19T08:12:05;3.33;;;3.03;;
26822;SDS011;14852;51.910;8.878;2022-08-19T08:14:44;3.55;;;3.17;;
26822;SDS011;14852;51.910;8.878;2022-08-19T08:17:13;4.50;;;3.50;;
26822;SDS011;14852;51.910;8.878;2022-08-19T08:19:41;3.88;;;3.40;;
26822;SDS011;14852;51.910;8.878;2022-08-19T08:22:09;3.83;;;3.38;;
26822;SDS011;14852;51.910;8.878;2022-08-19T08:25:09;4.60;;;4.20;;
26822;SDS011;14852;51.910;8.878;2022-08-19T08:27:40;4.60;;;3.90;;
26822;SDS011;14852;51.910;8.878;2022-08-19T08:30:10;5.22;;;4.07;;
26822;SDS011;14852;51.910;8.878;2022-08-19T08:32:41;4.85;;;3.80;;
26822;SDS011;14852;51.910;8.878;2022-08-19T08:35:07;4.15;;;3.75;;
26822;SDS011;14852;51.910;8.878;2022-08-19T08:37:36;4.15;;;3.72;;
26822;SDS011;14852;51.910;8.878;2022-08-19T08:40:04;3.67;;;3.33;;
26822;SDS011;14852;51.910;8.878;2022-08-19T08:42:57;3.67;;;3.30;;
26822;SDS011;14852;51.910;8.878;2022-08-19T08:45:25;3.92;;;3.15;;
26822;SDS011;14852;51.910;8.878;2022-08-19T08:47:53;4.57;;;3.90;;
26822;SDS011;14852;51.910;8.878;2022-08-19T08:50:29;3.90;;;3.42;;
26822;SDS011;14852;51.910;8.878;2022-08-19T08:53:05;5.90;;;3.20;;
26822;SDS011;14852;51.910;8.878;2022-08-19T08:55:33;4.63;;;3.05;;
26822;SDS011;14852;51.910;8.878;2022-08-19T08:58:06;3.80;;;3.38;;
26822;SDS011;14852;51.910;8.878;2022-08-19T09:00:43;4.25;;;3.33;;
26822;SDS011;14852;51.910;8.878;2022-08-19T09:03:19;4.47;;;3.25;;
26822;SDS011;14852;51.910;8.878;2022-08-19T09:05:59;4.22;;;2.90;;
26822;SDS011;14852;51.910;8.878;2022-08-19T09:08:57;4.28;;;3.20;;
26822;SDS011;14852;51.910;8.878;2022-08-19T09:15:07;5.18;;;3.78;;
26822;SDS011;14852;51.910;8.878;2022-08-19T09:17:36;5.03;;;3.45;;
26822;SDS011;14852;51.910;8.878;2022-08-19T09:22:38;5.78;;;3.60;;
26822;SDS011;14852;51.910;8.878;2022-08-19T09:25:09;3.72;;;3.20;;
26822;SDS011;14852;51.910;8.878;2022-08-19T09:27:38;3.13;;;2.60;;
26822;SDS011;14852;51.910;8.878;2022-08-19T09:30:06;3.38;;;2.90;;
26822;SDS011;14852;51.910;8.878;2022-08-19T09:32:35;3.20;;;2.75;;
26822;SDS011;14852;51.910;8.878;2022-08-19T09:35:01;4.15;;;2.70;;
26822;SDS011;14852;51.910;8.878;2022-08-19T09:37:26;3.15;;;2.42;;
26822;SDS011;14852;51.910;8.878;2022-08-19T09:39:52;4.20;;;3.15;;
26822;SDS011;14852;51.910;8.878;2022-08-19T09:42:18;3.92;;;3.13;;
26822;SDS011;14852;51.910;8.878;2022-08-19T09:44:44;3.63;;;2.88;;
26822;SDS011;14852;51.910;8.878;2022-08-19T09:47:11;6.70;;;2.72;;
26822;SDS011;14852;51.910;8.878;2022-08-19T09:49:38;5.25;;;2.92;;
26822;SDS011;14852;51.910;8.878;2022-08-19T09:52:05;3.50;;;2.28;;
26822;SDS011;14852;51.910;8.878;2022-08-19T09:54:37;2.95;;;2.75;;
26822;SDS011;14852;51.910;8.878;2022-08-19T09:57:03;3.72;;;2.72;;
26822;SDS011;14852;51.910;8.878;2022-08-19T09:59:30;3.60;;;3.28;;
26822;SDS011;14852;51.910;8.878;2022-08-19T10:01:56;4.38;;;2.90;;
26822;SDS011;14852;51.910;8.878;2022-08-19T10:04:22;2.90;;;2.47;;
26822;SDS011;14852;51.910;8.878;2022-08-19T10:06:49;4.35;;;2.90;;
26822;SDS011;14852;51.910;8.878;2022-08-19T10:09:16;2.50;;;2.30;;
26822;SDS011;14852;51.910;8.878;2022-08-19T10:11:44;2.50;;;2.30;;
26822;SDS011;14852;51.910;8.878;2022-08-19T10:14:14;3.57;;;2.27;;
26822;SDS011;14852;51.910;8.878;2022-08-19T10:16:42;3.17;;;2.55;;
26822;SDS011;14852;51.910;8.878;2022-08-19T10:19:08;3.15;;;2.60;;
26822;SDS011;14852;51.910;8.878;2022-08-19T10:21:34;5.00;;;2.45;;
26822;SDS011;14852;51.910;8.878;2022-08-19T10:24:02;4.13;;;2.50;;
26822;SDS011;14852;51.910;8.878;2022-08-19T10:26:34;2.42;;;2.03;;
26822;SDS011;14852;51.910;8.878;2022-08-19T10:29:03;3.55;;;2.33;;
26822;SDS011;14852;51.910;8.878;2022-08-19T10:31:31;2.60;;;2.40;;
26822;SDS011;14852;51.910;8.878;2022-08-19T10:33:59;4.00;;;2.80;;
26822;SDS011;14852;51.910;8.878;2022-08-19T10:36:27;2.65;;;2.45;;
26822;SDS011;14852;51.910;8.878;2022-08-19T10:39:01;3.58;;;2.45;;
26822;SDS011;14852;51.910;8.878;2022-08-19T10:41:32;2.65;;;2.45;;
26822;SDS011;14852;51.910;8.878;2022-08-19T10:44:02;2.55;;;2.30;;
26822;SDS011;14852;51.910;8.878;2022-08-19T10:46:31;2.97;;;2.63;;
26822;SDS011;14852;51.910;8.878;2022-08-19T10:49:01;4.20;;;2.40;;
26822;SDS011;14852;51.910;8.878;2022-08-19T10:51:29;3.42;;;2.75;;
26822;SDS011;14852;51.910;8.878;2022-08-19T10:54:14;2.50;;;2.30;;
26822;SDS011;14852;51.910;8.878;2022-08-19T10:56:40;3.33;;;2.60;;
26822;SDS011;14852;51.910;8.878;2022-08-19T10:59:24;3.05;;;2.10;;
26822;SDS011;14852;51.910;8.878;2022-08-19T11:01:54;3.25;;;2.50;;
26822;SDS011;14852;51.910;8.878;2022-08-19T11:04:26;2.60;;;2.25;;
26822;SDS011;14852;51.910;8.878;2022-08-19T11:06:51;2.70;;;2.50;;
26822;SDS011;14852;51.910;8.878;2022-08-19T11:09:18;2.50;;;1.95;;
26822;SDS011;14852;51.910;8.878;2022-08-19T11:11:49;6.30;;;2.20;;
26822;SDS011;14852;51.910;8.878;2022-08-19T11:14:19;4.30;;;2.35;;
26822;SDS011;14852;51.910;8.878;2022-08-19T11:16:47;2.40;;;1.92;;
26822;SDS011;14852;51.910;8.878;2022-08-19T11:19:14;3.45;;;2.38;;
26822;SDS011;14852;51.910;8.878;2022-08-19T11:21:44;2.40;;;2.08;;
26822;SDS011;14852;51.910;8.878;2022-08-19T11:24:22;3.33;;;2.42;;
26822;SDS011;14852;51.910;8.878;2022-08-19T11:26:52;3.53;;;2.17;;
26822;SDS011;14852;51.910;8.878;2022-08-19T11:29:24;3.33;;;2.20;;
26822;SDS011;14852;51.910;8.878;2022-08-19T11:31:50;2.78;;;2.50;;
26822;SDS011;14852;51.910;8.878;2022-08-19T11:34:18;2.80;;;2.60;;
26822;SDS011;14852;51.910;8.878;2022-08-19T11:36:47;2.58;;;2.38;;
26822;SDS011;14852;51.910;8.878;2022-08-19T11:39:15;2.97;;;2.25;;
26822;SDS011;14852;51.910;8.878;2022-08-19T11:41:44;2.80;;;2.10;;
26822;SDS011;14852;51.910;8.878;2022-08-19T11:44:10;3.20;;;2.15;;
26822;SDS011;14852;51.910;8.878;2022-08-19T11:46:36;2.28;;;2.08;;
26822;SDS011;14852;51.910;8.878;2022-08-19T11:49:03;3.38;;;3.08;;
26822;SDS011;14852;51.910;8.878;2022-08-19T11:51:32;4.75;;;2.47;;
26822;SDS011;14852;51.910;8.878;2022-08-19T11:53:59;2.95;;;2.45;;
26822;SDS011;14852;51.910;8.878;2022-08-19T11:56:26;3.35;;;1.95;;
26822;SDS011;14852;51.910;8.878;2022-08-19T11:58:53;3.78;;;3.05;;
26822;SDS011;14852;51.910;8.878;2022-08-19T12:01:22;3.05;;;2.80;;
26822;SDS011;14852;51.910;8.878;2022-08-19T12:03:50;2.75;;;2.25;;
26822;SDS011;14852;51.910;8.878;2022-08-19T12:06:23;3.30;;;2.05;;
26822;SDS011;14852;51.910;8.878;2022-08-19T12:08:56;4.22;;;2.30;;
26822;SDS011;14852;51.910;8.878;2022-08-19T12:11:24;2.85;;;2.30;;
26822;SDS011;14852;51.910;8.878;2022-08-19T12:13:51;2.97;;;2.60;;
26822;SDS011;14852;51.910;8.878;2022-08-19T12:16:19;2.88;;;2.03;;
26822;SDS011;14852;51.910;8.878;2022-08-19T12:18:49;2.60;;;2.40;;
26822;SDS011;14852;51.910;8.878;2022-08-19T12:21:17;2.88;;;2.20;;
26822;SDS011;14852;51.910;8.878;2022-08-19T12:23:53;2.28;;;2.08;;
26822;SDS011;14852;51.910;8.878;2022-08-19T12:26:22;2.17;;;1.85;;
26822;SDS011;14852;51.910;8.878;2022-08-19T12:28:50;2.53;;;2.17;;
26822;SDS011;14852;51.910;8.878;2022-08-19T12:31:16;3.53;;;2.10;;
26822;SDS011;14852;51.910;8.878;2022-08-19T12:33:43;2.45;;;2.25;;
26822;SDS011;14852;51.910;8.878;2022-08-19T12:36:10;2.80;;;2.47;;
26822;SDS011;14852;51.910;8.878;2022-08-19T12:38:38;2.30;;;2.10;;
26822;SDS011;14852;51.910;8.878;2022-08-19T12:41:05;3.83;;;2.40;;
26822;SDS011;14852;51.910;8.878;2022-08-19T12:43:34;5.55;;;2.85;;
26822;SDS011;14852;51.910;8.878;2022-08-19T12:46:01;2.63;;;2.42;;
26822;SDS011;14852;51.910;8.878;2022-08-19T12:48:29;1.85;;;1.75;;
26822;SDS011;14852;51.910;8.878;2022-08-19T12:50:55;2.65;;;2.45;;
26822;SDS011;14852;51.910;8.878;2022-08-19T12:53:21;3.13;;;2.20;;
26822;SDS011;14852;51.910;8.878;2022-08-19T12:55:47;2.85;;;2.15;;
26822;SDS011;14852;51.910;8.878;2022-08-19T12:58:22;4.22;;;2.30;;
26822;SDS011;14852;51.910;8.878;2022-08-19T13:00:48;2.08;;;1.80;;
26822;SDS011;14852;51.910;8.878;2022-08-19T13:03:14;2.42;;;2.13;;
26822;SDS011;14852;51.910;8.878;2022-08-19T13:05:40;2.38;;;2.17;;
26822;SDS011;14852;51.910;8.878;2022-08-19T13:08:06;3.13;;;2.20;;
26822;SDS011;14852;51.910;8.878;2022-08-19T13:10:33;2.95;;;2.38;;
26822;SDS011;14852;51.910;8.878;2022-08-19T13:13:01;2.90;;;2.28;;
26822;SDS011;14852;51.910;8.878;2022-08-19T13:15:36;3.55;;;2.10;;
26822;SDS011;14852;51.910;8.878;2022-08-19T13:18:05;4.90;;;2.60;;
26822;SDS011;14852;51.910;8.878;2022-08-19T13:20:34;3.42;;;2.45;;
26822;SDS011;14852;51.910;8.878;2022-08-19T13:23:02;2.60;;;2.30;;
26822;SDS011;14852;51.910;8.878;2022-08-19T13:25:29;2.80;;;2.00;;
26822;SDS011;14852;51.910;8.878;2022-08-19T13:27:54;2.40;;;2.20;;
26822;SDS011;14852;51.910;8.878;2022-08-19T13:30:21;2.58;;;2.25;;
26822;SDS011;14852;51.910;8.878;2022-08-19T13:33:05;2.67;;;2.13;;
26822;SDS011;14852;51.910;8.878;2022-08-19T13:35:43;3.40;;;2.30;;
26822;SDS011;14852;51.910;8.878;2022-08-19T13:38:20;2.50;;;2.30;;
26822;SDS011;14852;51.910;8.878;2022-08-19T13:40:47;2.40;;;2.20;;
26822;SDS011;14852;51.910;8.878;2022-08-19T13:43:15;2.53;;;2.28;;
26822;SDS011;14852;51.910;8.878;2022-08-19T13:45:42;2.25;;;2.05;;
26822;SDS011;14852;51.910;8.878;2022-08-19T13:48:08;5.47;;;2.95;;
26822;SDS011;14852;51.910;8.878;2022-08-19T13:50:35;2.83;;;2.30;;
26822;SDS011;14852;51.910;8.878;2022-08-19T13:55:33;2.78;;;2.38;;
26822;SDS011;14852;51.910;8.878;2022-08-19T13:58:01;2.97;;;2.45;;
26822;SDS011;14852;51.910;8.878;2022-08-19T14:00:28;2.75;;;2.42;;
26822;SDS011;14852;51.910;8.878;2022-08-19T14:03:00;3.10;;;2.42;;
26822;SDS011;14852;51.910;8.878;2022-08-19T14:05:28;3.42;;;2.45;;
26822;SDS011;14852;51.910;8.878;2022-08-19T14:07:55;2.45;;;2.25;;
26822;SDS011;14852;51.910;8.878;2022-08-19T14:10:22;2.35;;;2.15;;
26822;SDS011;14852;51.910;8.878;2022-08-19T14:12:49;4.40;;;2.60;;
26822;SDS011;14852;51.910;8.878;2022-08-19T14:15:20;2.30;;;2.10;;
26822;SDS011;14852;51.910;8.878;2022-08-19T14:17:48;3.30;;;2.35;;
26822;SDS011;14852;51.910;8.878;2022-08-19T14:20:14;3.05;;;2.50;;
26822;SDS011;14852;51.910;8.878;2022-08-19T14:22:41;2.72;;;2.25;;
26822;SDS011;14852;51.910;8.878;2022-08-19T14:25:10;3.80;;;2.22;;
26822;SDS011;14852;51.910;8.878;2022-08-19T14:27:43;2.63;;;2.42;;
26822;SDS011;14852;51.910;8.878;2022-08-19T14:30:10;3.65;;;2.22;;
26822;SDS011;14852;51.910;8.878;2022-08-19T14:32:39;2.95;;;2.22;;
26822;SDS011;14852;51.910;8.878;2022-08-19T14:35:08;2.47;;;2.22;;
26822;SDS011;14852;51.910;8.878;2022-08-19T14:37:34;2.80;;;2.10;;
26822;SDS011;14852;51.910;8.878;2022-08-19T14:40:01;3.33;;;2.70;;
26822;SDS011;14852;51.910;8.878;2022-08-19T14:42:28;2.83;;;2.35;;
26822;SDS011;14852;51.910;8.878;2022-08-19T14:44:57;3.38;;;2.30;;
26822;SDS011;14852;51.910;8.878;2022-08-19T14:47:24;2.65;;;2.33;;
26822;SDS011;14852;51.910;8.878;2022-08-19T14:49:50;4.05;;;2.30;;
26822;SDS011;14852;51.910;8.878;2022-08-19T14:52:16;2.50;;;2.30;;
26822;SDS011;14852;51.910;8.878;2022-08-19T14:54:41;2.60;;;2.33;;
26822;SDS011;14852;51.910;8.878;2022-08-19T14:57:10;2.20;;;1.98;;
26822;SDS011;14852;51.910;8.878;2022-08-19T14:59:39;2.33;;;2.08;;
26822;SDS011;14852;51.910;8.878;2022-08-19T15:02:05;3.00;;;2.70;;
26822;SDS011;14852;51.910;8.878;2022-08-19T15:04:31;5.05;;;2.83;;
26822;SDS011;14852;51.910;8.878;2022-08-19T15:06:57;2.97;;;2.67;;
26822;SDS011;14852;51.910;8.878;2022-08-19T15:09:23;5.95;;;2.65;;
26822;SDS011;14852;51.910;8.878;2022-08-19T15:11:49;2.65;;;2.45;;
26822;SDS011;14852;51.910;8.878;2022-08-19T15:14:15;3.00;;;2.70;;
26822;SDS011;14852;51.910;8.878;2022-08-19T15:16:41;2.90;;;2.40;;
26822;SDS011;14852;51.910;8.878;2022-08-19T15:19:07;3.78;;;2.47;;
26822;SDS011;14852;51.910;8.878;2022-08-19T15:21:34;2.22;;;2.03;;
26822;SDS011;14852;51.910;8.878;2022-08-19T15:24:01;3.20;;;2.50;;